Time;durP1;ratioP1;P1;durP2;ratioP2;P2;SDS_P1;SDS_P2;PMS_P1;PMS_P2;Temp;Humidity;BMP_temperature;BMP_pressure;BME280_temperature;BME280_humidity;BME280_pressure;Samples;Min_cycle;Max_cycle;Signal;HPM_P1;HPM_P2
2023/04/03 00:02:14;;;;;;;41.10;15.77;;;;;;;10.01;54.97;94639.63;5088909;28;20057;-79
2023/04/03 00:04:40;;;;;;;34.90;15.18;;;;;;;9.33;54.73;94519.91;5066740;28;20120;-79
2023/04/03 00:07:06;;;;;;;40.33;15.63;;;;;;;10.04;55.02;94634.56;5073443;28;20113;-79
2023/04/03 00:09:31;;;;;;;43.55;15.23;;;;;;;10.16;55.28;94639.44;5073619;28;20062;-79
2023/04/03 00:11:57;;;;;;;41.70;14.20;;;;;;;9.37;54.99;94527.03;5073778;28;20116;-79
2023/04/03 00:14:22;;;;;;;32.78;14.40;;;;;;;10.10;55.62;94637.94;5091391;28;20552;-79
2023/04/03 00:16:48;;;;;;;35.28;12.63;;;;;;;9.84;54.94;94600.34;5073535;28;20452;-79
2023/04/03 00:19:13;;;;;;;27.20;10.80;;;;;;;9.21;55.06;94523.75;5091507;28;20032;-79
2023/04/03 00:21:39;;;;;;;25.65;9.65;;;;;;;9.76;55.47;94624.03;5073423;28;20105;-79
2023/04/03 00:24:05;;;;;;;28.90;10.35;;;;;;;9.81;55.86;94623.97;5057127;28;20040;-79
2023/04/03 00:26:31;;;;;;;24.58;10.43;;;;;;;9.84;55.67;94628.72;5073220;28;20040;-79
2023/04/03 00:28:56;;;;;;;27.23;11.45;;;;;;;9.42;55.83;94563.22;5090465;28;20036;-79
2023/04/03 00:31:21;;;;;;;33.15;11.35;;;;;;;9.76;56.08;94626.69;5089603;28;20115;-79
2023/04/03 00:33:47;;;;;;;21.58;9.68;;;;;;;9.31;55.58;94551.94;5091178;28;20135;-79
2023/04/03 00:36:13;;;;;;;23.25;9.95;;;;;;;9.50;55.72;94589.06;5073045;28;20028;-79
2023/04/03 00:38:38;;;;;;;22.48;9.13;;;;;;;9.69;56.10;94625.13;5091326;28;20027;-79
2023/04/03 00:41:04;;;;;;;20.02;10.02;;;;;;;9.57;56.06;94602.75;5091463;28;20051;-79
2023/04/03 00:43:30;;;;;;;26.08;10.88;;;;;;;9.22;56.46;94565.00;5073142;28;20024;-79
2023/04/03 00:45:57;;;;;;;24.80;10.52;;;;;;;9.45;56.01;94599.72;5086114;28;20669;-79
2023/04/03 00:48:29;;;;;;;22.80;11.05;;;;;;;9.62;56.16;94629.19;5091800;28;20395;-79
2023/04/03 00:50:55;;;;;;;28.70;9.82;;;;;;;9.39;56.17;94596.31;5073909;28;20615;-79
2023/04/03 00:53:49;;;;;;;18.38;9.00;;;;;;;9.58;55.73;94628.97;5071438;28;20088;-79
2023/04/03 00:56:17;;;;;;;20.77;9.35;;;;;;;9.21;56.00;94567.94;5072800;28;20028;-79
2023/04/03 00:58:50;;;;;;;22.98;9.82;;;;;;;8.77;56.29;94496.66;5085608;28;20039;-80
2023/04/03 01:01:21;;;;;;;25.80;9.02;;;;;;;9.55;56.36;94631.38;5070464;28;20043;-79
2023/04/03 01:03:47;;;;;;;21.30;8.38;;;;;;;9.23;56.79;94590.38;5072431;28;20029;-79
2023/04/03 01:06:16;;;;;;;21.58;9.40;;;;;;;8.90;56.28;94554.97;5090318;28;20462;-79
2023/04/03 01:08:41;;;;;;;20.58;8.13;;;;;;;9.11;56.21;94586.53;5072275;28;20036;-80
2023/04/03 01:11:07;;;;;;;21.75;8.40;;;;;;;9.22;56.68;94594.13;5090410;28;20108;-79
2023/04/03 01:13:33;;;;;;;18.27;9.10;;;;;;;9.34;56.06;94616.75;5090947;28;20032;-79
2023/04/03 01:16:04;;;;;;;27.95;9.18;;;;;;;9.48;56.36;94639.63;5067306;28;20020;-79
2023/04/03 01:18:31;;;;;;;20.83;9.25;;;;;;;9.46;56.06;94643.66;5072624;28;20032;-79
2023/04/03 01:21:15;;;;;;;18.92;7.35;;;;;;;9.40;56.08;94642.09;5090002;28;20051;-79
2023/04/03 01:23:52;;;;;;;20.33;8.77;;;;;;;9.29;57.15;94641.41;5090355;28;20032;-79
2023/04/03 01:26:18;;;;;;;17.65;8.10;;;;;;;9.18;56.90;94610.81;5082285;28;20033;-80
2023/04/03 01:28:43;;;;;;;17.85;7.53;;;;;;;8.86;56.83;94569.81;5072474;28;20038;-79
2023/04/03 01:31:24;;;;;;;19.85;8.55;;;;;;;9.37;56.78;94637.38;5071693;28;20503;-79
2023/04/03 01:33:50;;;;;;;26.20;9.23;;;;;;;9.15;57.09;94628.03;5084765;28;20035;-80
2023/04/03 01:36:28;;;;;;;24.88;8.75;;;;;;;9.18;56.97;94619.53;5072258;28;20040;-79
2023/04/03 01:38:54;;;;;;;19.48;8.20;;;;;;;8.99;57.17;94599.34;5090296;28;20192;-79
2023/04/03 01:41:23;;;;;;;24.17;8.93;;;;;;;9.33;57.34;94636.34;5071626;28;20521;-79
2023/04/03 01:43:49;;;;;;;22.40;9.07;;;;;;;9.03;57.97;94613.56;5090074;28;20093;-79
2023/04/03 01:46:16;;;;;;;23.83;8.57;;;;;;;8.49;58.09;94557.13;5090144;28;20463;-79
2023/04/03 01:48:41;;;;;;;17.70;7.22;;;;;;;8.66;58.18;94596.41;5072111;28;20038;-79
2023/04/03 01:51:07;;;;;;;17.98;6.95;;;;;;;8.63;58.40;94619.94;5090686;28;20107;-77
2023/04/03 01:53:34;;;;;;;15.45;5.95;;;;;;;8.26;58.73;94586.03;5082636;28;20040;-76
2023/04/03 01:55:59;;;;;;;16.30;7.20;;;;;;;7.75;58.96;94515.03;5072320;28;20606;-77
2023/04/03 01:58:24;;;;;;;10.70;5.35;;;;;;;8.76;59.22;94646.56;5072614;28;20054;-76
2023/04/03 02:00:51;;;;;;;11.50;5.28;;;;;;;8.76;58.90;94641.28;5072238;28;20038;-79
2023/04/03 02:03:16;;;;;;;11.57;5.38;;;;;;;8.26;59.39;94600.03;5090114;28;20028;-79
2023/04/03 02:05:42;;;;;;;12.55;5.13;;;;;;;8.39;58.95;94610.03;5071483;28;20043;-79
2023/04/03 02:08:08;;;;;;;14.57;5.55;;;;;;;8.74;59.18;94650.53;5090282;28;20039;-79
2023/04/03 02:10:34;;;;;;;11.90;5.60;;;;;;;8.65;59.11;94629.19;5090269;28;20550;-79
2023/04/03 02:13:00;;;;;;;11.95;5.40;;;;;;;8.70;58.22;94621.22;5081919;28;20114;-79
2023/04/03 02:15:25;;;;;;;12.18;6.22;;;;;;;8.89;58.77;94651.25;5100402;28;20040;-80
2023/04/03 02:17:51;;;;;;;11.38;5.30;;;;;;;8.24;58.55;94554.63;5071881;28;20119;-79
2023/04/03 02:20:17;;;;;;;12.93;5.68;;;;;;;8.83;58.07;94627.75;5071489;28;20043;-79
2023/04/03 02:22:42;;;;;;;14.85;5.90;;;;;;;8.23;58.95;94594.53;5089770;28;20063;-79
2023/04/03 02:25:09;;;;;;;11.93;4.80;;;;;;;7.84;58.45;94505.47;5089255;28;20108;-79
2023/04/03 02:27:35;;;;;;;9.57;4.68;;;;;;;8.10;58.91;94537.78;5081506;28;20563;-79
2023/04/03 02:30:01;;;;;;;11.13;5.25;;;;;;;8.24;58.36;94557.25;5090099;28;20040;-79
2023/04/03 02:32:27;;;;;;;11.63;4.88;;;;;;;8.65;58.41;94617.81;5071538;28;20410;-79
2023/04/03 02:34:53;;;;;;;9.55;4.63;;;;;;;8.74;58.91;94630.19;5090292;28;20074;-79
2023/04/03 02:37:18;;;;;;;10.57;4.57;;;;;;;8.69;58.80;94610.94;5069454;28;20494;-79
2023/04/03 02:39:44;;;;;;;13.48;4.57;;;;;;;8.40;58.65;94564.06;5083209;28;20044;-79
2023/04/03 02:42:10;;;;;;;14.40;4.80;;;;;;;8.70;58.96;94633.63;5071339;28;20055;-80
2023/04/03 02:44:35;;;;;;;8.80;4.53;;;;;;;8.35;58.62;94581.81;5071450;28;20072;-79
2023/04/03 02:47:01;;;;;;;14.77;5.53;;;;;;;8.40;58.93;94592.31;5071537;28;20066;-79
2023/04/03 02:49:26;;;;;;;21.38;7.25;;;;;;;8.61;59.24;94624.72;5089264;28;20032;-79
2023/04/03 02:51:52;;;;;;;10.52;5.93;;;;;;;8.12;59.38;94551.53;5071184;28;20032;-79
2023/04/03 02:54:17;;;;;;;20.75;7.47;;;;;;;8.30;59.68;94576.53;5093183;28;20074;-79
2023/04/03 02:56:43;;;;;;;22.92;7.78;;;;;;;8.53;59.47;94615.53;5093603;28;20032;-79
2023/04/03 02:59:08;;;;;;;15.18;6.70;;;;;;;8.14;59.57;94565.25;5074527;28;20024;-79
2023/04/03 03:01:34;;;;;;;19.70;8.45;;;;;;;8.45;60.00;94613.47;5066770;28;20051;-80
2023/04/03 03:04:00;;;;;;;23.25;9.45;;;;;;;8.30;59.63;94601.09;5093159;28;20065;-80
2023/04/03 03:06:26;;;;;;;24.42;10.95;;;;;;;8.38;59.70;94618.25;5075065;28;20522;-80
2023/04/03 03:08:51;;;;;;;25.35;9.40;;;;;;;7.82;60.22;94557.75;5074993;28;20028;-80
2023/04/03 03:11:17;;;;;;;27.58;10.65;;;;;;;8.26;60.29;94612.47;5093433;28;20498;-80
2023/04/03 03:13:42;;;;;;;28.13;10.77;;;;;;;7.44;60.22;94490.63;5074664;28;20051;-80
2023/04/03 03:16:08;;;;;;;23.48;11.13;;;;;;;7.93;60.17;94567.22;5070246;28;20028;-80
2023/04/03 03:18:34;;;;;;;31.95;11.27;;;;;;;7.67;60.66;94515.59;5092927;28;20097;-80
2023/04/03 03:21:01;;;;;;;29.02;10.98;;;;;;;8.30;60.65;94603.75;5088288;28;20052;-80
2023/04/03 03:23:28;;;;;;;24.23;10.70;;;;;;;8.04;60.68;94571.38;5074388;28;20036;-80
2023/04/03 03:25:59;;;;;;;30.70;11.45;;;;;;;8.02;60.50;94562.94;5092777;28;20128;-80
2023/04/03 03:28:24;;;;;;;29.25;10.73;;;;;;;8.23;60.63;94591.88;5093089;28;20028;-80
2023/04/03 03:30:53;;;;;;;33.65;10.32;;;;;;;7.72;60.77;94510.28;5074350;28;20024;-80
2023/04/03 03:33:18;;;;;;;32.35;10.90;;;;;;;8.12;60.43;94583.22;5092839;28;20057;-80
2023/04/03 03:35:44;;;;;;;22.95;10.20;;;;;;;8.12;60.49;94588.50;5074471;28;20467;-80
2023/04/03 03:38:10;;;;;;;33.53;10.48;;;;;;;8.26;60.60;94610.63;5092697;28;20032;-80
2023/04/03 03:40:35;;;;;;;27.63;10.30;;;;;;;7.83;60.83;94545.34;5073577;28;20396;-80
2023/04/03 03:43:01;;;;;;;26.92;11.35;;;;;;;7.71;60.80;94543.78;5092556;28;20383;-80
2023/04/03 03:45:26;;;;;;;27.17;11.30;;;;;;;7.58;61.00;94533.81;5092479;28;20036;-80
2023/04/03 03:47:52;;;;;;;20.98;9.52;;;;;;;7.97;60.88;94580.66;5092900;28;20043;-80
2023/04/03 03:50:17;;;;;;;23.10;9.50;;;;;;;7.51;60.83;94496.38;5088798;28;20028;-80
2023/04/03 03:52:43;;;;;;;19.10;8.70;;;;;;;7.94;60.60;94570.63;5073950;28;20032;-80
2023/04/03 03:55:08;;;;;;;17.13;9.20;;;;;;;7.01;60.70;94426.16;5092229;28;20421;-80
2023/04/03 03:57:34;;;;;;;19.88;9.52;;;;;;;7.88;60.47;94556.66;5074355;28;20036;-80
2023/04/03 03:59:59;;;;;;;24.85;9.18;;;;;;;8.09;60.18;94589.81;5073835;28;20032;-80
2023/04/03 04:02:26;;;;;;;22.58;9.93;;;;;;;7.17;60.48;94451.41;5054408;28;20048;-80
2023/04/03 04:04:52;;;;;;;27.92;10.38;;;;;;;7.94;60.42;94571.41;5067928;28;20110;-80
2023/04/03 04:07:17;;;;;;;17.88;9.70;;;;;;;8.26;60.24;94612.47;5073396;28;20066;-80
2023/04/03 04:09:43;;;;;;;23.40;10.38;;;;;;;7.64;60.66;94516.91;5091943;28;20028;-80
2023/04/03 04:12:08;;;;;;;26.90;11.00;;;;;;;8.27;60.56;94603.47;5091853;28;20048;-80
2023/04/03 04:14:33;;;;;;;19.77;10.07;;;;;;;7.58;60.32;94507.44;5056913;28;20119;-81
2023/04/03 04:16:59;;;;;;;23.05;11.85;;;;;;;7.96;60.32;94585.13;5092316;28;20040;-80
2023/04/03 04:19:24;;;;;;;26.83;11.07;;;;;;;7.68;60.46;94552.28;5073781;28;20028;-80
2023/04/03 04:21:50;;;;;;;25.20;10.57;;;;;;;8.05;60.78;94609.94;5090649;28;20067;-80
2023/04/03 04:24:17;;;;;;;25.33;10.10;;;;;;;7.88;60.64;94583.06;5089702;28;20081;-80
2023/04/03 04:26:42;;;;;;;29.38;11.27;;;;;;;7.82;60.39;94570.16;5091956;28;20032;-80
2023/04/03 04:29:09;;;;;;;23.75;10.63;;;;;;;7.61;60.94;94545.69;5091968;28;20510;-80
2023/04/03 04:31:35;;;;;;;27.77;9.65;;;;;;;7.29;60.40;94503.84;5091725;28;20042;-80
2023/04/03 04:34:00;;;;;;;34.45;11.40;;;;;;;7.92;61.30;94599.97;5087196;28;20406;-80
2023/04/03 04:36:26;;;;;;;47.45;13.20;;;;;;;8.23;61.02;94632.31;5091218;28;20434;-80
2023/04/03 04:38:52;;;;;;;47.35;12.57;;;;;;;7.85;61.69;94573.06;5091760;28;20042;-80
2023/04/03 04:41:22;;;;;;;31.38;12.52;;;;;;;8.19;61.49;94630.47;5091929;28;20031;-80
2023/04/03 04:43:48;;;;;;;39.13;11.57;;;;;;;7.71;61.30;94593.16;5072748;28;20422;-80
2023/04/03 04:46:13;;;;;;;33.97;12.50;;;;;;;8.18;60.66;94628.88;5091317;28;20039;-80
2023/04/03 04:48:40;;;;;;;34.85;11.35;;;;;;;8.17;60.89;94614.09;5090753;28;20041;-80
2023/04/03 04:51:06;;;;;;;41.17;12.07;;;;;;;8.38;60.49;94634.09;5069251;28;20044;-80
2023/04/03 04:53:32;;;;;;;25.65;11.85;;;;;;;7.24;60.31;94453.78;5091108;28;20050;-80
2023/04/03 04:55:58;;;;;;;31.63;11.38;;;;;;;8.13;60.42;94619.94;5072829;28;20413;-80
2023/04/03 04:58:23;;;;;;;38.10;12.70;;;;;;;7.79;60.79;94574.13;5072459;28;20028;-80
2023/04/03 05:00:49;;;;;;;44.65;11.13;;;;;;;7.45;61.56;94557.38;5090040;28;20106;-80
2023/04/03 05:03:14;;;;;;;33.45;11.13;;;;;;;7.92;61.78;94610.53;5097277;28;20027;-80
2023/04/03 05:05:40;;;;;;;33.90;13.10;;;;;;;7.74;60.87;94568.88;5082653;28;20035;-80
2023/04/03 05:08:08;;;;;;;27.50;12.55;;;;;;;8.01;60.54;94632.63;5090203;28;20056;-80
2023/04/03 05:10:34;;;;;;;35.10;12.27;;;;;;;8.12;60.47;94613.06;5061931;28;20124;-80
2023/04/03 05:12:59;;;;;;;34.33;13.90;;;;;;;8.35;59.78;94632.00;5109591;28;20060;-80
2023/04/03 05:15:25;;;;;;;35.15;13.65;;;;;;;8.40;60.01;94630.13;5091598;28;20578;-80
2023/04/03 05:17:50;;;;;;;28.65;12.70;;;;;;;8.77;59.49;94679.09;5072550;28;20032;-79
2023/04/03 05:20:17;;;;;;;33.90;12.98;;;;;;;8.79;59.55;94679.59;5084696;28;20554;-79
2023/04/03 05:22:42;;;;;;;35.55;12.70;;;;;;;8.46;60.09;94625.63;5070019;28;20041;-79
2023/04/03 05:25:08;;;;;;;27.27;11.57;;;;;;;8.89;59.66;94685.63;5092678;28;20501;-81
2023/04/03 05:27:34;;;;;;;30.20;12.00;;;;;;;8.70;59.76;94647.66;5093567;28;20034;-81
2023/04/03 05:29:59;;;;;;;31.80;11.73;;;;;;;8.97;60.10;94678.94;5096648;28;20043;-78
2023/04/03 05:32:27;;;;;;;35.67;11.85;;;;;;;8.90;59.44;94654.66;5071325;28;20047;-80
2023/04/03 05:34:53;;;;;;;47.03;15.10;;;;;;;8.75;59.65;94649.47;5090434;28;20534;-79
2023/04/03 05:37:19;;;;;;;34.50;13.93;;;;;;;8.70;59.48;94641.56;5083718;28;20056;-79
2023/04/03 05:39:45;;;;;;;41.03;14.38;;;;;;;8.63;60.38;94678.09;5090273;28;20537;-79
2023/04/03 05:42:11;;;;;;;32.40;12.80;;;;;;;8.55;60.81;94674.16;5069445;28;20054;-79
2023/04/03 05:44:37;;;;;;;46.28;15.85;;;;;;;8.49;60.22;94654.13;5070519;28;20032;-79
2023/04/03 05:47:02;;;;;;;42.22;18.30;;;;;;;8.57;60.53;94673.91;5088169;28;20036;-79
2023/04/03 05:49:28;;;;;;;51.30;16.73;;;;;;;8.00;60.50;94594.13;5087499;28;20043;-79
2023/04/03 05:51:55;;;;;;;46.33;16.95;;;;;;;7.83;59.66;94548.78;5072527;28;20546;-81
2023/04/03 05:54:26;;;;;;;59.53;20.85;;;;;;;8.73;60.30;94665.63;5074373;28;20562;-80
2023/04/03 05:56:52;;;;;;;80.28;21.98;;;;;;;8.63;60.48;94663.03;5107694;28;20032;-79
2023/04/03 05:59:19;;;;;;;60.90;23.15;;;;;;;8.33;60.49;94599.78;5108823;28;20028;-79
2023/04/03 06:01:45;;;;;;;58.72;22.75;;;;;;;8.51;60.05;94594.66;5091407;28;20043;-79
2023/04/03 06:04:11;;;;;;;51.45;20.17;;;;;;;8.03;60.03;94537.31;5085531;28;20085;-79
2023/04/03 06:06:51;;;;;;;37.67;14.60;;;;;;;8.30;60.01;94602.94;5100459;28;20097;-79
2023/04/03 06:09:17;;;;;;;38.45;15.90;;;;;;;8.48;60.17;94621.63;5087277;28;20067;-79
2023/04/03 06:11:43;;;;;;;50.65;20.38;;;;;;;8.57;59.65;94610.47;5105301;28;20474;-79
2023/04/03 06:14:09;;;;;;;51.33;18.10;;;;;;;8.93;59.54;94642.72;5079222;28;20067;-79
2023/04/03 06:16:35;;;;;;;62.72;19.45;;;;;;;8.51;59.52;94578.78;5093057;28;20456;-79
2023/04/03 06:19:00;;;;;;;67.05;25.25;;;;;;;8.74;59.16;94582.59;5086475;28;20039;-79
2023/04/03 06:21:27;;;;;;;72.60;26.38;;;;;;;8.95;58.88;94637.97;5090593;28;20060;-79
2023/04/03 06:23:53;;;;;;;52.53;21.75;;;;;;;8.82;58.59;94576.72;5091148;28;20023;-79
2023/04/03 06:26:18;;;;;;;59.00;20.55;;;;;;;9.02;57.78;94588.19;5109334;28;20027;-79
2023/04/03 06:28:44;;;;;;;61.65;24.70;;;;;;;9.13;57.15;94593.13;5109321;28;20042;-79
2023/04/03 06:31:09;;;;;;;63.30;24.27;;;;;;;8.56;58.17;94530.38;5094924;28;20038;-79
2023/04/03 06:33:35;;;;;;;47.92;20.83;;;;;;;9.16;57.87;94595.19;5090717;28;20078;-79
2023/04/03 06:36:04;;;;;;;45.58;20.33;;;;;;;9.58;57.49;94659.94;5082609;28;20086;-79
2023/04/03 06:38:30;;;;;;;44.38;20.42;;;;;;;9.64;57.30;94664.09;5074348;28;20418;-79
2023/04/03 06:40:55;;;;;;;43.38;19.35;;;;;;;9.57;57.42;94634.53;5107526;28;20035;-80
2023/04/03 06:43:21;;;;;;;42.67;19.33;;;;;;;9.84;57.23;94668.44;5100881;28;20032;-80
2023/04/03 06:45:47;;;;;;;41.25;18.48;;;;;;;9.91;56.84;94668.88;5108482;28;20694;-80
2023/04/03 06:48:12;;;;;;;44.05;19.55;;;;;;;9.81;56.05;94631.91;5077048;28;20035;-80
2023/04/03 06:50:38;;;;;;;51.42;19.00;;;;;;;9.65;56.71;94581.75;5090275;28;20136;-79
2023/04/03 06:53:05;;;;;;;42.92;18.35;;;;;;;9.76;55.88;94584.31;5093576;28;20023;-80
2023/04/03 06:55:31;;;;;;;36.53;19.05;;;;;;;10.04;56.64;94647.00;5095780;28;20119;-80
2023/04/03 06:57:57;;;;;;;30.48;15.27;;;;;;;9.78;56.33;94590.88;5113560;28;20069;-79
2023/04/03 07:00:22;;;;;;;45.47;17.73;;;;;;;9.80;55.47;94580.78;5079856;28;20032;-80
2023/04/03 07:02:48;;;;;;;38.55;18.17;;;;;;;10.55;55.35;94668.41;5094905;28;20031;-80
2023/04/03 07:05:15;;;;;;;42.97;14.88;;;;;;;10.30;55.84;94639.56;5071527;28;20024;-79
2023/04/03 07:07:41;;;;;;;35.85;14.95;;;;;;;10.16;55.30;94606.84;5080172;28;20163;-80
2023/04/03 07:10:07;;;;;;;34.22;14.40;;;;;;;10.29;55.40;94607.00;5077186;28;20497;-80
2023/04/03 07:12:33;;;;;;;46.05;17.05;;;;;;;10.08;55.98;94579.91;5092047;28;20051;-80
2023/04/03 07:14:58;;;;;;;35.50;13.02;;;;;;;10.37;56.17;94624.91;5074183;28;20510;-79
2023/04/03 07:17:25;;;;;;;36.85;14.93;;;;;;;10.49;55.80;94616.53;5091572;28;20039;-81
2023/04/03 07:19:50;;;;;;;32.00;12.13;;;;;;;10.22;55.78;94593.28;5112323;28;20027;-80
2023/04/03 07:22:16;;;;;;;33.17;12.98;;;;;;;10.42;55.36;94594.91;5093541;28;20510;-79
2023/04/03 07:24:41;;;;;;;35.40;14.45;;;;;;;10.49;55.25;94587.38;5106461;28;20032;-79
2023/04/03 07:27:08;;;;;;;29.15;13.07;;;;;;;10.35;55.87;94613.81;5089845;28;20050;-80
2023/04/03 07:29:34;;;;;;;35.75;12.52;;;;;;;10.32;55.22;94565.88;5088056;28;20135;-79
2023/04/03 07:31:59;;;;;;;28.52;13.10;;;;;;;10.91;55.10;94646.72;5071409;28;20031;-80
2023/04/03 07:34:25;;;;;;;21.75;12.25;;;;;;;10.79;54.52;94597.53;5088872;28;20688;-79
2023/04/03 07:36:50;;;;;;;35.50;12.93;;;;;;;10.47;54.75;94584.22;5099733;28;20070;-79
2023/04/03 07:39:16;;;;;;;40.15;13.70;;;;;;;10.77;54.51;94604.97;5087993;28;20027;-79
2023/04/03 07:41:41;;;;;;;45.65;13.80;;;;;;;11.28;54.45;94638.72;5100932;28;20516;-79
2023/04/03 07:44:09;;;;;;;64.40;16.65;;;;;;;11.04;53.61;94577.78;5090176;28;20071;-80
2023/04/03 07:46:34;;;;;;;62.20;21.55;;;;;;;11.44;53.44;94637.34;5095653;28;20046;-79
2023/04/03 07:49:00;;;;;;;41.97;19.75;;;;;;;11.22;53.40;94594.72;5095212;28;20024;-79
2023/04/03 07:51:26;;;;;;;56.78;22.33;;;;;;;11.34;53.11;94581.00;5092652;28;20040;-79
2023/04/03 07:53:52;;;;;;;59.10;20.63;;;;;;;11.46;52.91;94618.47;5097894;28;20032;-79
2023/04/03 07:56:17;;;;;;;40.97;20.40;;;;;;;11.55;52.96;94604.25;5090754;28;20417;-79
2023/04/03 07:58:43;;;;;;;52.40;22.33;;;;;;;11.56;53.56;94620.97;5109410;28;20417;-79
2023/04/03 08:01:09;;;;;;;51.65;22.90;;;;;;;11.73;52.93;94615.09;5087443;28;20035;-79
2023/04/03 08:03:35;;;;;;;53.47;21.58;;;;;;;11.07;52.92;94521.47;5076918;28;20065;-79
2023/04/03 08:06:05;;;;;;;65.35;20.98;;;;;;;11.67;53.01;94592.38;5093256;28;20582;-80
2023/04/03 08:08:32;;;;;;;53.47;20.17;;;;;;;11.84;52.93;94609.31;5093397;28;20073;-79
2023/04/03 08:10:59;;;;;;;47.00;19.83;;;;;;;11.86;53.24;94615.13;5111352;28;20038;-79
2023/04/03 08:13:26;;;;;;;42.92;19.85;;;;;;;11.37;53.11;94514.03;5093601;28;20031;-79
2023/04/03 08:15:51;;;;;;;47.42;19.52;;;;;;;11.78;52.87;94546.75;5062960;28;20038;-79
2023/04/03 08:18:18;;;;;;;51.88;20.88;;;;;;;12.09;52.68;94565.53;5091345;28;20031;-79
2023/04/03 08:20:43;;;;;;;51.10;20.23;;;;;;;12.41;52.61;94599.16;5066451;28;20078;-80
2023/04/03 08:23:10;;;;;;;43.83;19.67;;;;;;;12.38;52.41;94592.56;5083656;28;20148;-79
2023/04/03 08:25:41;;;;;;;51.10;20.00;;;;;;;11.92;52.32;94528.91;5109019;28;20035;-79
2023/04/03 08:28:08;;;;;;;38.33;19.52;;;;;;;12.11;52.06;94534.13;5098124;28;20046;-80
2023/04/03 08:30:34;;;;;;;39.17;18.75;;;;;;;11.88;52.43;94514.66;5085509;28;20042;-79
2023/04/03 08:33:03;;;;;;;40.15;18.10;;;;;;;12.55;51.96;94591.13;5102949;28;20032;-79
2023/04/03 08:35:28;;;;;;;40.92;18.33;;;;;;;12.46;52.05;94600.91;5095892;28;20046;-80
2023/04/03 08:37:54;;;;;;;49.03;19.33;;;;;;;12.23;51.71;94538.91;5109095;27;20027;-79
2023/04/03 08:40:20;;;;;;;41.22;18.83;;;;;;;11.51;51.68;94390.84;5092355;28;20059;-79
2023/04/03 08:43:26;;;;;;;40.53;19.40;;;;;;;12.53;51.91;94538.25;5104910;28;20120;-80
2023/04/03 08:45:55;;;;;;;32.90;17.50;;;;;;;13.03;51.19;94578.06;5078770;28;20043;-80
2023/04/03 08:48:30;;;;;;;38.33;17.60;;;;;;;12.87;50.65;94577.66;5092425;28;20096;-79
2023/04/03 08:51:11;;;;;;;37.97;16.58;;;;;;;12.31;50.52;94493.78;5079621;28;20442;-79
2023/04/03 08:53:42;;;;;;;36.20;16.88;;;;;;;12.56;50.44;94519.03;5091003;28;20036;-79
2023/04/03 08:56:13;;;;;;;44.70;17.25;;;;;;;12.61;50.11;94500.28;5110865;28;20039;-79
2023/04/03 08:59:06;;;;;;;31.75;15.90;;;;;;;13.16;49.81;94568.47;5110536;28;20035;-80
2023/04/03 09:01:37;;;;;;;47.20;19.75;;;;;;;13.28;49.90;94566.03;5075664;28;20040;-80
2023/04/03 09:04:10;;;;;;;39.15;17.35;;;;;;;13.16;49.72;94545.28;5103391;28;20044;-79
2023/04/03 09:06:38;;;;;;;41.50;16.48;;;;;;;12.16;49.78;94365.75;5102856;28;20027;-79
2023/04/03 09:09:12;;;;;;;37.13;17.05;;;;;;;13.45;49.68;94548.28;5109815;28;20024;-80
2023/04/03 09:11:56;;;;;;;41.65;18.63;;;;;;;13.49;50.13;94548.47;5109616;28;20035;-79
2023/04/03 09:14:39;;;;;;;33.15;17.90;;;;;;;13.68;49.55;94537.56;5079046;28;20114;-79
2023/04/03 09:17:43;;;;;;;42.28;17.63;;;;;;;13.60;48.87;94514.31;5092031;28;20130;-79
2023/04/03 09:21:00;;;;;;;34.88;16.05;;;;;;;13.86;48.82;94539.19;5071505;28;20047;-80
2023/04/03 09:23:35;;;;;;;24.95;13.93;;;;;;;13.58;49.39;94505.88;5060769;28;20044;-80
2023/04/03 09:26:09;;;;;;;27.73;12.73;;;;;;;13.64;49.69;94515.28;5065524;28;20027;-80
2023/04/03 09:28:38;;;;;;;35.72;13.95;;;;;;;13.48;48.79;94462.44;5110347;28;20032;-80
2023/04/03 09:31:41;;;;;;;25.77;15.07;;;;;;;14.00;48.89;94529.19;5085470;28;20031;-80
2023/04/03 09:34:30;;;;;;;30.58;13.80;;;;;;;13.69;49.03;94481.28;5109357;28;20478;-80
2023/04/03 09:36:58;;;;;;;33.22;12.30;;;;;;;13.64;48.53;94464.66;5085209;28;20031;-80
2023/04/03 09:39:27;;;;;;;29.52;12.68;;;;;;;13.65;47.94;94455.59;5109963;28;20028;-80
2023/04/03 09:42:01;;;;;;;34.67;14.38;;;;;;;14.07;48.41;94523.41;5091738;28;20462;-80
2023/04/03 09:44:29;;;;;;;33.08;15.00;;;;;;;14.10;48.35;94520.91;5100904;28;20032;-79
2023/04/03 09:46:55;;;;;;;27.45;13.43;;;;;;;14.15;48.48;94486.09;5082500;28;20044;-80
2023/04/03 09:49:20;;;;;;;33.50;15.02;;;;;;;14.33;49.41;94520.78;5087882;28;20028;-79
2023/04/03 09:51:46;;;;;;;32.85;15.80;;;;;;;14.30;48.06;94496.31;5090532;28;20092;-80
2023/04/03 09:54:33;;;;;;;30.35;15.52;;;;;;;14.31;47.71;94502.44;5108803;28;20019;-80
2023/04/03 09:57:07;;;;;;;33.85;15.27;;;;;;;14.41;47.48;94494.16;5106360;28;20067;-80
2023/04/03 09:59:33;;;;;;;34.17;16.35;;;;;;;14.49;47.96;94506.72;5090871;28;20031;-79
2023/04/03 10:02:02;;;;;;;37.60;17.25;;;;;;;14.14;48.75;94449.06;5092071;28;20039;-79
2023/04/03 10:04:40;;;;;;;31.83;14.73;;;;;;;13.95;49.09;94437.94;5102999;28;20059;-80
2023/04/03 10:07:30;;;;;;;27.38;13.60;;;;;;;14.30;49.47;94501.63;5095928;28;20020;-80
2023/04/03 10:09:58;;;;;;;32.40;13.43;;;;;;;14.30;48.78;94496.31;5114950;28;20489;-80
2023/04/03 10:12:24;;;;;;;26.60;11.75;;;;;;;14.01;48.93;94444.66;5114661;28;20035;-80
2023/04/03 10:14:52;;;;;;;21.95;10.93;;;;;;;14.14;49.06;94502.41;5113988;28;20080;-80
2023/04/03 10:17:21;;;;;;;24.17;10.88;;;;;;;14.22;49.02;94504.28;5095483;28;20497;-79
2023/04/03 10:20:24;;;;;;;29.15;12.40;;;;;;;13.65;49.54;94432.41;5113597;28;20066;-79
2023/04/03 10:22:50;;;;;;;35.42;12.32;;;;;;;14.05;49.68;94496.25;5065054;28;20059;-79
2023/04/03 10:25:48;;;;;;;27.25;12.68;;;;;;;13.97;50.22;94492.47;5062428;28;20039;-79
2023/04/03 10:28:32;;;;;;;29.58;13.32;;;;;;;13.70;50.29;94436.78;5099429;28;20537;-79
2023/04/03 10:31:14;;;;;;;21.45;11.18;;;;;;;13.87;50.88;94458.16;5111911;28;20062;-79
2023/04/03 10:33:53;;;;;;;25.77;10.93;;;;;;;13.84;51.49;94474.75;5097069;28;20155;-79
2023/04/03 10:36:37;;;;;;;23.63;9.68;;;;;;;13.52;51.32;94454.59;5097427;28;20032;-79
2023/04/03 10:39:28;;;;;;;28.50;9.75;;;;;;;13.63;50.93;94468.44;5111449;28;20070;-79
2023/04/03 10:42:24;;;;;;;27.65;9.93;;;;;;;13.81;50.80;94470.03;5105105;28;20032;-79
2023/04/03 10:45:14;;;;;;;33.83;10.48;;;;;;;13.89;51.16;94459.38;5094136;28;20784;-79
2023/04/03 10:48:22;;;;;;;19.63;8.47;;;;;;;13.81;50.41;94443.38;5094341;28;20044;-79
2023/04/03 10:51:06;;;;;;;24.63;8.88;;;;;;;13.88;50.12;94452.47;5109653;27;20151;-79
2023/04/03 10:54:06;;;;;;;24.48;9.98;;;;;;;13.76;50.34;94431.00;5114694;27;20034;-79
2023/04/03 10:56:56;;;;;;;22.42;8.63;;;;;;;13.97;50.07;94459.72;5093949;27;20477;-79
2023/04/03 10:59:33;;;;;;;25.48;8.88;;;;;;;13.91;50.57;94456.41;5134021;27;20035;-79
2023/04/03 11:02:05;;;;;;;24.55;8.93;;;;;;;13.91;50.54;94453.75;5128535;27;20042;-79
2023/04/03 11:04:35;;;;;;;21.23;6.90;;;;;;;13.35;50.88;94391.41;5112719;28;20103;-81
2023/04/03 11:07:10;;;;;;;11.27;5.40;;;;;;;13.59;50.64;94456.81;5105233;28;20049;-79
2023/04/03 11:09:40;;;;;;;14.80;5.13;;;;;;;13.53;52.76;94466.81;5086353;28;20682;-80
2023/04/03 11:12:22;;;;;;;11.30;5.33;;;;;;;12.96;55.51;94410.81;5112345;28;20738;-79
2023/04/03 11:14:51;;;;;;;13.73;4.85;;;;;;;13.22;56.35;94472.19;5111257;28;20345;-79
2023/04/03 11:17:22;;;;;;;14.52;5.50;;;;;;;13.15;57.38;94471.84;5108994;28;20043;-79
2023/04/03 11:20:10;;;;;;;16.65;5.72;;;;;;;13.09;57.85;94473.81;5094162;28;20035;-79
2023/04/03 11:22:41;;;;;;;13.10;4.28;;;;;;;12.81;59.24;94461.78;5108353;27;20081;-79
2023/04/03 11:25:19;;;;;;;8.00;5.18;;;;;;;12.83;60.05;94475.53;5092288;28;20039;-79
2023/04/03 11:27:57;;;;;;;14.63;5.15;;;;;;;12.91;59.76;94466.81;5099264;27;20039;-80
2023/04/03 11:30:49;;;;;;;11.35;5.65;;;;;;;12.84;63.98;94471.00;5112517;27;20039;-80
2023/04/03 11:33:52;;;;;;;10.10;5.45;;;;;;;12.86;65.56;94460.84;5109969;27;20035;-79
2023/04/03 11:36:24;;;;;;;9.13;4.28;;;;;;;12.70;64.96;94444.47;5098456;27;20071;-81